Airport View

Enter AWOS ICAO identifier for current METAR.

ex. KFNL

KARA 212332Z 11005KT 10SM -RA BKN023 BKN047 OVC070 24/24 A3009 RMK AO2 P0002 T02440244

21 Sep 2019 23:44

Frequency: 133.325

Phone: 337-365-0128

Other Area AWOS: KIYA - KLFT - K7R4 - KOPL

TAF KARA 212110Z 2121/2218 20010KT P6SM VCTS SCT045 BKN060CB TEMPO 2121/2122 VRB15G25KT -TSRA FM220200 07003KT P6SM SCT250 FM221400 13007KT P6SM FEW025